Billet, Illinois
Current Conditions -  °F | °C
As of 3:53 PM on Tuesday 21 Oct 2014 (Local Time) from KLWV Reporting Station
Scattered Clouds Scattered Clouds  
Wind Chill: 60°   Ceiling: Unl
Heat Index: 60°   Visibility: 10mi
Dew Point: 42°   Wind: 13mph
Humidity: 51%   Direction: 10°N
Pressure: 30.12"   Gusts: NA
Location:  38.7501°N, 87.6141°W
Report Text: KLWV 212053Z AUTO 01011KT 10SM SCT049 16/06 A3012 RMK AO2 SLP199 60000 T01560056 53001
Loading
Personal Weather Stations






























Interactive Weather Map
Tropical Storm Tracking
New forecast layout! Learn more

10-Day Weather Forecast

Advertisements
Track Severe Weather on mobile